Time;durP1;ratioP1;P1;durP2;ratioP2;P2;SDS_P1;SDS_P2;PMS_P1;PMS_P2;Temp;Humidity;BMP_temperature;BMP_pressure;BME280_temperature;BME280_humidity;BME280_pressure;Samples;Min_cycle;Max_cycle;Signal;HPM_P1;HPM_P2
2023/08/17 00:04:35;;;;;;;0.05;0.05;;;;;;;24.16;100.00;101912.63;10418063;28;20120;-81
2023/08/17 00:09:37;;;;;;;0.00;0.00;;;;;;;23.82;100.00;101902.53;10417958;28;20045;-82
2023/08/17 00:14:38;;;;;;;0.00;0.00;;;;;;;24.76;100.00;101897.63;10418750;28;20042;-81
2023/08/17 00:19:40;;;;;;;0.00;0.00;;;;;;;23.93;100.00;101911.19;10417509;28;20506;-81
2023/08/17 00:24:44;;;;;;;0.10;0.10;;;;;;;24.60;100.00;101907.50;10418451;28;20500;-81
2023/08/17 00:29:45;;;;;;;0.30;0.20;;;;;;;23.91;100.00;101918.19;10418291;28;20407;-81
2023/08/17 00:34:47;;;;;;;0.17;0.10;;;;;;;23.72;100.00;101913.16;10400979;28;20049;-80
2023/08/17 00:39:49;;;;;;;0.38;0.15;;;;;;;23.75;100.00;101907.88;10417775;28;20051;-81
2023/08/17 00:44:51;;;;;;;0.00;0.00;;;;;;;24.39;100.00;101915.75;10416388;28;20501;-82
2023/08/17 00:49:53;;;;;;;0.40;0.20;;;;;;;23.89;100.00;101925.22;10399991;28;20045;-82
2023/08/17 00:54:56;;;;;;;0.10;0.00;;;;;;;23.89;100.00;101930.50;10417257;28;20037;-80
2023/08/17 00:59:59;;;;;;;0.00;0.00;;;;;;;23.90;100.00;101927.84;10417050;28;20561;-81
2023/08/17 01:05:06;;;;;;;0.43;0.25;;;;;;;23.87;100.00;101919.09;10417398;28;20091;-80
2023/08/17 01:10:09;;;;;;;1.77;0.32;;;;;;;23.42;100.00;101915.28;10432552;28;20049;-81
2023/08/17 01:15:31;;;;;;;0.00;0.00;;;;;;;23.13;100.00;101908.56;10432071;28;20447;-81
2023/08/17 01:20:34;;;;;;;0.00;0.00;;;;;;;23.52;100.00;101900.28;10415205;28;20045;-80
2023/08/17 01:25:38;;;;;;;0.00;0.00;;;;;;;23.61;100.00;101904.56;10431813;28;20050;-80
2023/08/17 01:30:48;;;;;;;0.17;0.00;;;;;;;23.37;100.00;101906.59;10414702;28;20045;-81
2023/08/17 01:36:05;;;;;;;0.00;0.00;;;;;;;23.91;100.00;101905.03;10414426;28;20056;-81
2023/08/17 01:41:15;;;;;;;0.00;0.00;;;;;;;24.24;100.00;101913.34;10414530;28;20042;-81
2023/08/17 01:46:18;;;;;;;0.87;0.20;;;;;;;24.34;100.00;101917.59;10414966;28;20054;-81
2023/08/17 01:51:19;;;;;;;0.08;0.08;;;;;;;24.64;100.00;101920.63;10397909;28;20351;-81
2023/08/17 01:56:21;;;;;;;0.43;0.22;;;;;;;24.65;100.00;101917.09;10415928;28;20042;-81
2023/08/17 02:01:23;;;;;;;0.65;0.52;;;;;;;24.43;100.00;101920.97;10397768;28;20079;-81
2023/08/17 02:06:24;;;;;;;0.15;0.10;;;;;;;23.85;100.00;101920.91;10397697;28;20049;-80
2023/08/17 02:11:27;;;;;;;0.30;0.10;;;;;;;23.81;100.00;101920.09;10414371;28;20041;-81
2023/08/17 02:16:28;;;;;;;0.00;0.00;;;;;;;24.32;100.00;101916.72;10413877;28;20057;-81
2023/08/17 02:21:30;;;;;;;0.30;0.10;;;;;;;23.71;100.00;101911.44;10414036;28;20120;-81
2023/08/17 02:26:31;;;;;;;0.00;0.00;;;;;;;23.28;100.00;101901.44;10414923;28;20060;-81
2023/08/17 02:31:33;;;;;;;0.00;0.00;;;;;;;23.25;100.00;101885.72;10413341;28;20045;-81
2023/08/17 02:36:35;;;;;;;0.00;0.00;;;;;;;23.06;100.00;101877.13;10414553;28;20587;-81
2023/08/17 02:41:37;;;;;;;0.10;0.10;;;;;;;23.36;100.00;101873.28;10413315;28;20058;-81
2023/08/17 02:46:38;;;;;;;0.80;0.20;;;;;;;23.64;100.00;101857.19;10415105;28;20073;-81
2023/08/17 02:51:40;;;;;;;0.20;0.20;;;;;;;22.99;100.00;101850.03;10421464;28;20045;-81
2023/08/17 02:56:41;;;;;;;0.00;0.00;;;;;;;23.47;100.00;101859.16;10420672;28;20049;-81
2023/08/17 03:01:45;;;;;;;0.10;0.10;;;;;;;22.51;100.00;101850.50;10420550;28;20045;-80
2023/08/17 03:06:47;;;;;;;0.17;0.10;;;;;;;22.94;100.00;101843.97;10420264;28;20412;-81
2023/08/17 03:11:49;;;;;;;0.80;0.28;;;;;;;23.11;100.00;101836.78;10420030;28;20055;-80
2023/08/17 03:16:50;;;;;;;0.20;0.10;;;;;;;23.07;100.00;101840.31;10421742;28;20083;-81
2023/08/17 03:21:53;;;;;;;0.00;0.00;;;;;;;22.81;100.00;101845.84;10419662;28;20037;-81
2023/08/17 03:26:55;;;;;;;0.15;0.10;;;;;;;22.89;100.00;101835.28;10419779;28;20512;-81
2023/08/17 03:31:59;;;;;;;0.05;0.00;;;;;;;22.39;100.00;101834.88;10403155;28;20140;-80
2023/08/17 03:37:01;;;;;;;0.28;0.28;;;;;;;22.28;100.00;101837.56;10419167;28;20046;-80
2023/08/17 03:42:03;;;;;;;0.25;0.20;;;;;;;22.84;100.00;101831.81;10402756;28;20408;-80
2023/08/17 03:47:04;;;;;;;0.20;0.20;;;;;;;22.11;100.00;101833.31;10402344;28;20128;-81
2023/08/17 03:52:07;;;;;;;0.10;0.10;;;;;;;22.07;100.00;101836.84;10418533;28;20033;-80
2023/08/17 03:57:09;;;;;;;0.17;0.17;;;;;;;22.18;100.00;101832.38;10418495;28;20420;-80
2023/08/17 04:02:10;;;;;;;0.00;0.00;;;;;;;22.16;100.00;101826.25;10417299;28;20046;-80
2023/08/17 04:07:20;;;;;;;0.10;0.10;;;;;;;22.33;100.00;101833.13;10418059;28;20073;-80
2023/08/17 04:12:23;;;;;;;0.25;0.25;;;;;;;22.35;100.00;101845.34;10419155;28;20041;-80
2023/08/17 04:17:25;;;;;;;0.30;0.20;;;;;;;22.50;100.00;101843.50;10401079;28;20049;-81
2023/08/17 04:22:27;;;;;;;0.00;0.00;;;;;;;22.73;100.00;101843.31;10417201;28;20492;-81
2023/08/17 04:27:29;;;;;;;0.00;0.00;;;;;;;22.25;100.00;101853.31;10418472;28;20053;-81
2023/08/17 04:32:31;;;;;;;0.00;0.00;;;;;;;22.93;100.00;101848.38;10400580;28;20045;-81
2023/08/17 04:37:32;;;;;;;0.08;0.05;;;;;;;22.70;100.00;101856.47;10416747;28;20045;-80
2023/08/17 04:42:34;;;;;;;0.20;0.10;;;;;;;23.04;100.00;101853.50;10400726;28;20111;-80
2023/08/17 04:47:37;;;;;;;0.38;0.15;;;;;;;22.72;100.00;101854.69;10416855;28;20045;-81
2023/08/17 04:52:38;;;;;;;0.60;0.17;;;;;;;23.71;100.00;101858.84;10416173;28;20044;-81
2023/08/17 04:57:40;;;;;;;0.38;0.30;;;;;;;23.39;100.00;101849.59;10415998;28;20489;-81
2023/08/17 05:02:44;;;;;;;0.63;0.60;;;;;;;23.07;100.00;101850.81;10415848;28;20038;-80
2023/08/17 05:07:46;;;;;;;0.00;0.00;;;;;;;23.42;100.00;101844.28;10415611;28;20124;-81
2023/08/17 05:12:48;;;;;;;0.10;0.10;;;;;;;24.07;100.00;101845.16;10415292;28;20053;-80
2023/08/17 05:17:49;;;;;;;2.85;1.65;;;;;;;23.69;100.00;101850.09;10398917;28;20041;-80
2023/08/17 05:22:51;;;;;;;0.08;0.08;;;;;;;23.49;100.00;101852.97;10398700;28;20041;-81
2023/08/17 05:27:53;;;;;;;0.13;0.08;;;;;;;23.93;100.00;101850.66;10398643;28;20050;-81
2023/08/17 05:32:55;;;;;;;1.08;0.10;;;;;;;24.25;100.00;101849.25;10414737;28;20064;-81
2023/08/17 05:37:57;;;;;;;0.05;0.05;;;;;;;24.07;100.00;101858.31;10414673;28;20382;-80
2023/08/17 05:42:59;;;;;;;0.00;0.00;;;;;;;22.94;100.00;101867.63;10398683;28;20072;-80
2023/08/17 05:48:01;;;;;;;0.00;0.00;;;;;;;24.64;100.00;101862.66;10414468;28;20481;-81
2023/08/17 05:53:03;;;;;;;0.20;0.13;;;;;;;23.79;100.00;101865.75;10415797;28;20041;-80
2023/08/17 05:58:05;;;;;;;0.03;0.00;;;;;;;24.27;100.00;101868.53;10414171;28;20056;-81
2023/08/17 06:03:07;;;;;;;0.00;0.00;;;;;;;24.28;100.00;101874.66;10413880;28;20052;-81
2023/08/17 06:08:08;;;;;;;0.30;0.20;;;;;;;23.72;100.00;101876.34;10413940;28;20097;-81
2023/08/17 06:13:10;;;;;;;0.10;0.10;;;;;;;23.59;100.00;101872.13;10413715;28;20050;-80
2023/08/17 06:18:12;;;;;;;0.10;0.10;;;;;;;23.72;100.00;101873.69;10413571;28;20400;-80
2023/08/17 06:23:13;;;;;;;0.00;0.00;;;;;;;23.73;100.00;101866.69;10401050;28;20038;-80
2023/08/17 06:28:15;;;;;;;1.50;0.50;;;;;;;24.46;100.00;101868.25;10421552;28;20045;-80
2023/08/17 06:33:17;;;;;;;0.10;0.00;;;;;;;24.37;100.00;101878.03;10404736;28;20081;-81
2023/08/17 06:38:18;;;;;;;0.08;0.00;;;;;;;24.81;100.00;101898.41;10422341;28;20576;-80
2023/08/17 06:43:20;;;;;;;0.47;0.00;;;;;;;24.37;100.00;101888.59;10404615;28;20045;-79
2023/08/17 06:48:22;;;;;;;0.20;0.03;;;;;;;24.34;100.00;101891.25;10421955;28;20440;-80
2023/08/17 06:53:23;;;;;;;1.35;0.47;;;;;;;25.16;100.00;101896.88;10385192;28;20493;-79
2023/08/17 06:58:25;;;;;;;0.00;0.00;;;;;;;24.13;100.00;101899.50;10399977;28;20060;-80
2023/08/17 07:03:26;;;;;;;0.00;0.00;;;;;;;24.40;100.00;101891.16;10419969;28;20049;-80
2023/08/17 07:08:28;;;;;;;0.20;0.20;;;;;;;23.26;100.00;101892.72;10387123;28;20500;-80
2023/08/17 07:13:30;;;;;;;0.32;0.15;;;;;;;23.48;100.00;101897.72;10421031;28;20038;-80
2023/08/17 07:18:31;;;;;;;0.93;0.55;;;;;;;24.40;100.00;101903.47;10386342;28;20420;-80
2023/08/17 07:23:33;;;;;;;0.00;0.00;;;;;;;23.90;100.00;101919.09;10419191;28;20049;-80
2023/08/17 07:28:35;;;;;;;0.15;0.15;;;;;;;24.55;100.00;101915.50;10403109;28;20050;-80
2023/08/17 07:33:37;;;;;;;0.00;0.00;;;;;;;24.64;100.00;101915.34;10401102;28;20401;-79
2023/08/17 07:38:38;;;;;;;0.08;0.08;;;;;;;24.37;100.00;101924.56;10402056;28;20488;-79
2023/08/17 07:43:40;;;;;;;1.45;0.38;;;;;;;23.83;100.00;101928.81;10385580;28;20061;-79
2023/08/17 07:48:41;;;;;;;0.00;0.00;;;;;;;24.44;100.00;101925.34;10385533;28;20447;-79
2023/08/17 07:53:43;;;;;;;0.57;0.22;;;;;;;23.81;100.00;101927.09;10419343;28;20048;-79
2023/08/17 07:58:45;;;;;;;0.00;0.00;;;;;;;24.81;100.00;101914.22;10418154;28;20041;-80
2023/08/17 08:03:46;;;;;;;0.00;0.00;;;;;;;24.68;100.00;101925.00;10401697;28;20045;-80
2023/08/17 08:08:48;;;;;;;0.10;0.10;;;;;;;24.27;100.00;101929.09;10379391;28;20052;-80
2023/08/17 08:13:49;;;;;;;0.10;0.10;;;;;;;24.85;100.00;101923.78;10400795;28;20037;-80
2023/08/17 08:18:51;;;;;;;0.30;0.20;;;;;;;25.21;100.00;101926.66;10418292;28;20567;-79
2023/08/17 08:23:53;;;;;;;0.00;0.00;;;;;;;24.68;100.00;101924.09;10418156;28;20041;-80
2023/08/17 08:28:54;;;;;;;0.10;0.10;;;;;;;25.06;100.00;101924.31;10400718;28;20049;-79
2023/08/17 08:33:56;;;;;;;0.00;0.00;;;;;;;25.80;100.00;101930.78;10383777;28;20050;-80
2023/08/17 08:38:58;;;;;;;0.75;0.55;;;;;;;25.03;100.00;101931.38;10400216;28;20049;-80
2023/08/17 08:43:59;;;;;;;0.00;0.00;;;;;;;25.12;100.00;101934.75;10418075;28;20042;-80
2023/08/17 08:49:04;;;;;;;0.25;0.10;;;;;;;25.34;100.00;101933.44;10399654;28;20053;-79
2023/08/17 08:54:10;;;;;;;0.50;0.20;;;;;;;25.31;100.00;101920.31;10416221;28;20088;-79
2023/08/17 08:59:12;;;;;;;0.22;0.10;;;;;;;25.83;100.00;101914.84;10416126;28;20049;-80
2023/08/17 09:04:14;;;;;;;0.30;0.10;;;;;;;24.56;100.00;101914.59;10399276;28;20060;-79
2023/08/17 09:09:17;;;;;;;0.00;0.00;;;;;;;24.99;100.00;101926.19;10398915;28;20057;-79
2023/08/17 09:14:19;;;;;;;0.00;0.00;;;;;;;24.98;100.00;101933.22;10399466;28;20485;-80
2023/08/17 09:19:21;;;;;;;0.10;0.10;;;;;;;25.23;100.00;101924.84;10419637;28;20047;-80
2023/08/17 09:24:23;;;;;;;0.32;0.00;;;;;;;25.42;100.00;101927.19;10410796;28;20398;-80
2023/08/17 09:29:25;;;;;;;0.47;0.30;;;;;;;25.48;100.00;101919.13;10382487;28;20052;-81
2023/08/17 09:34:30;;;;;;;0.50;0.30;;;;;;;25.61;100.00;101910.06;10382456;28;20076;-80
2023/08/17 09:39:32;;;;;;;0.17;0.10;;;;;;;26.31;100.00;101911.16;10398257;28;20045;-79
2023/08/17 09:44:35;;;;;;;0.00;0.00;;;;;;;26.47;100.00;101901.09;10415276;28;20037;-79
2023/08/17 09:49:36;;;;;;;0.30;0.20;;;;;;;25.69;100.00;101914.28;10397467;28;20073;-79
2023/08/17 09:54:38;;;;;;;1.30;0.57;;;;;;;26.06;100.00;101906.41;10397555;28;20161;-79
2023/08/17 09:59:41;;;;;;;0.32;0.20;;;;;;;25.27;100.00;101905.44;10396485;28;20060;-79
2023/08/17 10:04:44;;;;;;;0.10;0.10;;;;;;;24.77;100.00;101894.97;10381340;28;20164;-80
2023/08/17 10:09:52;;;;;;;0.85;0.63;;;;;;;25.68;100.00;101894.09;10397492;28;20124;-79
2023/08/17 10:14:59;;;;;;;0.67;0.47;;;;;;;25.58;100.00;101889.00;10397620;28;20041;-79
2023/08/17 10:20:01;;;;;;;0.63;0.52;;;;;;;25.43;100.00;101890.22;10365159;28;20301;-79
2023/08/17 10:25:05;;;;;;;1.00;0.30;;;;;;;25.01;100.00;101888.34;10413938;28;20046;-80
2023/08/17 10:30:10;;;;;;;0.45;0.35;;;;;;;25.97;100.00;101891.66;10396821;28;20054;-80
2023/08/17 10:35:13;;;;;;;0.10;0.10;;;;;;;26.03;100.00;101900.31;10396779;28;20049;-80
2023/08/17 10:40:15;;;;;;;0.68;0.40;;;;;;;25.29;100.00;101893.09;10414578;28;20046;-80
2023/08/17 10:45:31;;;;;;;0.17;0.10;;;;;;;25.87;100.00;101892.78;10429710;28;20087;-81
2023/08/17 10:50:35;;;;;;;0.00;0.00;;;;;;;25.77;100.00;101880.69;10413182;28;20049;-80
2023/08/17 10:55:44;;;;;;;0.08;0.00;;;;;;;26.94;100.00;101874.34;10414032;28;20038;-80
2023/08/17 11:00:45;;;;;;;0.15;0.10;;;;;;;26.21;100.00;101868.25;10396270;28;20053;-80
2023/08/17 11:05:53;;;;;;;0.57;0.40;;;;;;;26.55;100.00;101861.25;10396527;28;20045;-80
2023/08/17 11:11:11;;;;;;;0.00;0.00;;;;;;;27.01;100.00;101853.84;10419507;28;20065;-81
2023/08/17 11:16:14;;;;;;;0.32;0.32;;;;;;;26.81;100.00;101852.66;10387177;28;20128;-81
2023/08/17 11:21:19;;;;;;;0.00;0.00;;;;;;;26.04;100.00;101865.09;10403328;28;20049;-80
2023/08/17 11:26:22;;;;;;;0.60;0.30;;;;;;;25.96;100.00;101866.16;10403170;28;20092;-79
2023/08/17 11:31:25;;;;;;;0.15;0.10;;;;;;;26.96;100.00;101876.94;10420677;28;20045;-80
2023/08/17 11:36:28;;;;;;;0.52;0.32;;;;;;;25.93;100.00;101879.44;10398393;28;20785;-82
2023/08/17 11:41:29;;;;;;;0.38;0.20;;;;;;;25.61;100.00;101894.22;10386254;28;20488;-81
2023/08/17 11:46:32;;;;;;;0.10;0.05;;;;;;;25.96;100.00;101897.84;10402502;28;20053;-80
2023/08/17 11:51:34;;;;;;;0.52;0.30;;;;;;;26.07;100.00;101892.34;10401991;28;20080;-81
2023/08/17 11:56:37;;;;;;;0.43;0.20;;;;;;;25.53;100.00;101888.22;10419846;28;20042;-81
2023/08/17 12:01:38;;;;;;;0.22;0.10;;;;;;;26.39;100.00;101877.50;10401687;28;20049;-81
2023/08/17 12:06:45;;;;;;;0.17;0.15;;;;;;;26.56;100.00;101884.97;10401907;28;20048;-81
2023/08/17 12:11:46;;;;;;;0.40;0.38;;;;;;;26.21;100.00;101894.66;10385175;28;20049;-81
2023/08/17 12:16:48;;;;;;;0.32;0.32;;;;;;;27.67;100.00;101883.72;10401624;28;20426;-81
2023/08/17 12:21:51;;;;;;;0.10;0.10;;;;;;;27.18;100.00;101883.34;10383579;28;20049;-81
2023/08/17 12:26:56;;;;;;;0.05;0.05;;;;;;;26.31;100.00;101883.88;10384242;28;20492;-81
2023/08/17 12:32:00;;;;;;;0.38;0.22;;;;;;;26.52;100.00;101878.03;10400612;28;20135;-81
2023/08/17 12:37:02;;;;;;;0.10;0.10;;;;;;;26.86;100.00;101879.81;10400625;28;20046;-81
2023/08/17 12:42:04;;;;;;;0.47;0.47;;;;;;;27.46;100.00;101881.72;10401024;28;20052;-81
2023/08/17 12:47:12;;;;;;;3.07;0.43;;;;;;;27.37;100.00;101880.16;10401099;28;20041;-81
2023/08/17 12:52:14;;;;;;;0.45;0.40;;;;;;;26.52;100.00;101883.34;10417566;28;20033;-81
2023/08/17 12:57:15;;;;;;;0.05;0.05;;;;;;;27.32;100.00;101885.63;10417258;28;20378;-81
2023/08/17 13:02:17;;;;;;;0.38;0.20;;;;;;;27.17;100.00;101886.91;10400071;28;20046;-81
2023/08/17 13:07:19;;;;;;;1.30;0.45;;;;;;;26.30;100.00;101893.56;10397311;28;20053;-80
2023/08/17 13:12:20;;;;;;;0.20;0.10;;;;;;;27.18;100.00;101890.44;10417328;28;20079;-80
2023/08/17 13:17:22;;;;;;;0.20;0.15;;;;;;;26.52;100.00;101885.97;10398902;28;20049;-80
2023/08/17 13:22:24;;;;;;;0.20;0.20;;;;;;;27.06;100.00;101895.13;10398552;28;20045;-80
2023/08/17 13:27:27;;;;;;;0.30;0.30;;;;;;;27.07;100.00;101890.72;10398629;28;20049;-80
2023/08/17 13:32:28;;;;;;;0.30;0.30;;;;;;;26.62;100.00;101891.88;10381978;28;20497;-80
2023/08/17 13:37:31;;;;;;;0.28;0.25;;;;;;;26.75;100.00;101879.22;10398220;28;20056;-80
2023/08/17 13:42:34;;;;;;;0.13;0.13;;;;;;;27.30;100.00;101881.25;10398221;28;20084;-80
2023/08/17 13:47:36;;;;;;;0.60;0.35;;;;;;;27.01;100.00;101882.94;10381871;28;20060;-80
2023/08/17 13:52:37;;;;;;;0.68;0.65;;;;;;;27.36;100.00;101883.75;10397769;28;20092;-81
2023/08/17 13:57:39;;;;;;;0.30;0.30;;;;;;;27.15;100.00;101882.56;10397692;28;20080;-80
2023/08/17 14:02:40;;;;;;;0.00;0.00;;;;;;;27.79;100.00;101879.81;10398598;28;20049;-80
2023/08/17 14:07:42;;;;;;;0.35;0.32;;;;;;;26.82;100.00;101877.28;10397603;28;20049;-80
2023/08/17 14:12:44;;;;;;;1.40;0.35;;;;;;;27.10;100.00;101880.06;10415034;28;20041;-81
2023/08/17 14:17:46;;;;;;;0.25;0.17;;;;;;;26.86;100.00;101885.09;10397402;28;20500;-80
2023/08/17 14:22:47;;;;;;;0.63;0.60;;;;;;;28.06;100.00;101881.69;10380959;28;20152;-79
2023/08/17 14:27:49;;;;;;;0.03;0.03;;;;;;;28.00;100.00;101872.09;10397145;28;20400;-81
2023/08/17 14:32:51;;;;;;;0.10;0.10;;;;;;;27.54;100.00;101862.03;10380781;28;20055;-80
2023/08/17 14:37:53;;;;;;;0.75;0.60;;;;;;;27.50;100.00;101847.19;10396884;28;20049;-80
2023/08/17 14:42:55;;;;;;;0.43;0.20;;;;;;;27.09;100.00;101846.56;10397884;28;20501;-80
2023/08/17 14:47:58;;;;;;;1.02;0.75;;;;;;;26.76;100.00;101851.91;10387996;28;20049;-80
2023/08/17 14:53:05;;;;;;;0.10;0.10;;;;;;;28.01;100.00;101853.50;10387851;28;20049;-80
2023/08/17 14:58:06;;;;;;;0.43;0.22;;;;;;;27.02;100.00;101842.38;10404606;28;20045;-80
2023/08/17 15:03:08;;;;;;;0.82;0.60;;;;;;;27.34;100.00;101841.44;10404489;28;20045;-80
2023/08/17 15:08:10;;;;;;;1.13;0.38;;;;;;;27.50;100.00;101833.94;10387508;28;20046;-80
2023/08/17 15:13:11;;;;;;;1.92;1.10;;;;;;;27.84;100.00;101832.88;10403409;28;20053;-80
2023/08/17 15:18:13;;;;;;;1.35;0.75;;;;;;;27.98;100.00;101836.84;10421250;28;20037;-81
2023/08/17 15:23:15;;;;;;;1.02;0.65;;;;;;;27.80;100.00;101844.50;10419388;28;20482;-79
2023/08/17 15:28:19;;;;;;;0.10;0.10;;;;;;;27.82;100.00;101837.34;10403005;28;20050;-79
2023/08/17 15:33:21;;;;;;;0.93;0.85;;;;;;;27.20;100.00;101826.00;10403361;28;20042;-81
2023/08/17 15:38:22;;;;;;;0.85;0.25;;;;;;;27.21;100.00;101813.63;10386292;28;20103;-80
2023/08/17 15:43:24;;;;;;;1.25;0.50;;;;;;;26.95;100.00;101811.72;10386192;28;20111;-80
2023/08/17 15:48:26;;;;;;;0.88;0.60;;;;;;;27.31;100.00;101819.50;10419863;28;20045;-79
2023/08/17 15:53:27;;;;;;;0.73;0.60;;;;;;;27.95;100.00;101811.34;10402207;28;20050;-80
2023/08/17 15:58:29;;;;;;;0.22;0.22;;;;;;;27.60;100.00;101800.13;10401392;28;20120;-80
2023/08/17 16:03:30;;;;;;;1.30;0.47;;;;;;;27.54;100.00;101801.16;10401881;28;20140;-80
2023/08/17 16:08:32;;;;;;;0.28;0.25;;;;;;;26.91;100.00;101795.97;10401357;28;20049;-81
2023/08/17 16:13:49;;;;;;;0.88;0.70;;;;;;;27.63;100.00;101791.22;10401165;28;20041;-80
2023/08/17 16:18:51;;;;;;;0.68;0.32;;;;;;;27.64;100.00;101787.66;10401679;28;20041;-80
2023/08/17 16:23:53;;;;;;;1.45;0.65;;;;;;;27.07;100.00;101782.28;10434341;28;20041;-80
2023/08/17 16:28:55;;;;;;;0.28;0.22;;;;;;;26.98;100.00;101774.63;10424426;28;20055;-80
2023/08/17 16:33:56;;;;;;;0.20;0.10;;;;;;;26.98;100.00;101769.34;10419297;28;20120;-80
2023/08/17 16:39:12;;;;;;;0.68;0.65;;;;;;;27.09;100.00;101767.25;10399952;28;20056;-79
2023/08/17 16:44:14;;;;;;;1.13;0.85;;;;;;;27.16;100.00;101760.84;10400417;28;20046;-80
2023/08/17 16:49:17;;;;;;;0.65;0.57;;;;;;;27.34;100.00;101758.56;10400172;28;20060;-80
2023/08/17 16:54:18;;;;;;;1.27;0.55;;;;;;;27.64;100.00;101769.13;10362211;28;20037;-80
2023/08/17 16:59:20;;;;;;;0.20;0.20;;;;;;;27.17;100.00;101765.22;10383145;28;20484;-80
2023/08/17 17:04:22;;;;;;;0.73;0.70;;;;;;;27.83;100.00;101759.66;10399576;28;20481;-80
2023/08/17 17:09:24;;;;;;;0.30;0.30;;;;;;;26.66;100.00;101768.47;10398733;28;20059;-80
2023/08/17 17:14:26;;;;;;;0.45;0.45;;;;;;;27.12;100.00;101763.63;10399012;28;20481;-80
2023/08/17 17:19:27;;;;;;;0.55;0.55;;;;;;;27.38;100.00;101769.00;10398951;28;20042;-80
2023/08/17 17:24:31;;;;;;;0.20;0.10;;;;;;;26.74;100.00;101761.19;10416750;28;20134;-80
2023/08/17 17:29:32;;;;;;;0.60;0.15;;;;;;;27.09;100.00;101759.31;10424214;28;20484;-80
2023/08/17 17:34:34;;;;;;;0.30;0.30;;;;;;;27.60;100.00;101760.41;10422695;28;20488;-79
2023/08/17 17:39:36;;;;;;;0.20;0.20;;;;;;;28.09;100.00;101765.00;10422560;28;20049;-80
2023/08/17 17:44:37;;;;;;;0.32;0.32;;;;;;;27.43;100.00;101771.53;10422573;28;20051;-80
2023/08/17 17:49:39;;;;;;;0.10;0.10;;;;;;;27.19;100.00;101758.13;10438916;28;20048;-80
2023/08/17 17:54:41;;;;;;;0.28;0.20;;;;;;;26.33;100.00;101765.81;10422173;28;20148;-79
2023/08/17 17:59:45;;;;;;;1.02;0.30;;;;;;;26.70;100.00;101767.44;10408491;28;20068;-79
2023/08/17 18:04:46;;;;;;;0.40;0.35;;;;;;;26.83;100.00;101776.81;10414116;28;20038;-80
2023/08/17 18:09:48;;;;;;;0.57;0.20;;;;;;;26.56;100.00;101768.72;10440642;28;20060;-80
2023/08/17 18:14:49;;;;;;;0.32;0.30;;;;;;;26.62;100.00;101777.41;10471364;28;20041;-79
2023/08/17 18:19:51;;;;;;;0.30;0.30;;;;;;;26.50;100.00;101782.09;10442809;28;20055;-80
2023/08/17 18:24:53;;;;;;;0.40;0.30;;;;;;;25.75;100.00;101769.00;10479877;28;20045;-79
2023/08/17 18:29:54;;;;;;;0.20;0.20;;;;;;;26.99;100.00;101779.03;10446950;28;20052;-80
2023/08/17 18:34:56;;;;;;;0.25;0.22;;;;;;;26.27;100.00;101782.72;10446756;28;20052;-81
2023/08/17 18:39:57;;;;;;;0.57;0.25;;;;;;;25.87;100.00;101776.66;10446398;28;20049;-80
2023/08/17 18:44:59;;;;;;;0.10;0.10;;;;;;;27.13;100.00;101784.75;10426277;28;20049;-79
2023/08/17 18:50:01;;;;;;;0.30;0.10;;;;;;;26.30;100.00;101798.47;10478659;28;20400;-80
2023/08/17 18:55:03;;;;;;;0.20;0.17;;;;;;;25.81;100.00;101788.22;10445600;28;20402;-79
2023/08/17 19:00:07;;;;;;;0.50;0.20;;;;;;;26.11;100.00;101788.38;10461826;28;20484;-81
2023/08/17 19:05:09;;;;;;;0.20;0.10;;;;;;;26.51;100.00;101790.91;10445378;28;20033;-80
2023/08/17 19:10:10;;;;;;;0.10;0.10;;;;;;;25.54;100.00;101802.06;10445031;28;20049;-80
2023/08/17 19:15:12;;;;;;;0.65;0.55;;;;;;;26.55;100.00;101793.38;10461259;28;20045;-80
2023/08/17 19:20:14;;;;;;;0.32;0.20;;;;;;;26.20;100.00;101789.91;10444875;28;20041;-80
2023/08/17 19:25:15;;;;;;;0.63;0.35;;;;;;;26.05;100.00;101787.63;10444464;28;20511;-80
2023/08/17 19:30:17;;;;;;;0.20;0.20;;;;;;;25.72;100.00;101798.13;10443973;28;20049;-79
2023/08/17 19:35:20;;;;;;;0.10;0.10;;;;;;;25.54;100.00;101795.00;10461588;28;20073;-79
2023/08/17 19:40:22;;;;;;;0.10;0.10;;;;;;;26.53;100.00;101797.88;10461626;28;20404;-80
2023/08/17 19:45:24;;;;;;;0.25;0.13;;;;;;;26.35;100.00;101815.09;10443714;28;20140;-80
2023/08/17 19:50:25;;;;;;;0.17;0.17;;;;;;;26.52;100.00;101816.38;10443960;28;20084;-80
2023/08/17 19:55:27;;;;;;;0.57;0.50;;;;;;;25.51;100.00;101818.78;10426731;28;20037;-79
2023/08/17 20:00:28;;;;;;;0.05;0.05;;;;;;;26.10;100.00;101828.03;10443009;28;20045;-80
2023/08/17 20:05:30;;;;;;;0.20;0.20;;;;;;;25.37;100.00;101831.38;10459517;28;20412;-80
2023/08/17 20:10:31;;;;;;;0.20;0.20;;;;;;;25.24;100.00;101831.66;10442804;28;20403;-80
2023/08/17 20:15:33;;;;;;;0.00;0.00;;;;;;;25.11;100.00;101831.03;10442244;28;20385;-79
2023/08/17 20:20:35;;;;;;;0.10;0.10;;;;;;;26.36;100.00;101839.72;10442061;28;20484;-80
2023/08/17 20:25:37;;;;;;;0.10;0.05;;;;;;;25.96;100.00;101837.13;10425533;28;20053;-80
2023/08/17 20:30:38;;;;;;;0.28;0.28;;;;;;;25.71;100.00;101846.53;10442039;28;20133;-80
2023/08/17 20:35:48;;;;;;;0.60;0.17;;;;;;;25.61;100.00;101835.31;10441524;28;20480;-80
2023/08/17 20:40:50;;;;;;;0.45;0.45;;;;;;;25.53;100.00;101838.09;10440660;28;20049;-80
2023/08/17 20:45:52;;;;;;;0.08;0.03;;;;;;;24.89;100.00;101835.88;10441447;28;20033;-80
2023/08/17 20:50:55;;;;;;;0.60;0.28;;;;;;;25.18;100.00;101837.06;10440918;28;20071;-80
2023/08/17 20:55:57;;;;;;;0.40;0.30;;;;;;;25.13;100.00;101838.94;10440762;28;20045;-80
2023/08/17 21:01:00;;;;;;;0.82;0.20;;;;;;;24.91;100.00;101836.69;10440667;28;20063;-80
2023/08/17 21:06:06;;;;;;;0.30;0.30;;;;;;;24.88;100.00;101828.88;10440307;28;20055;-79
2023/08/17 21:11:07;;;;;;;0.20;0.20;;;;;;;24.89;100.00;101820.06;10456693;28;20048;-80
2023/08/17 21:16:09;;;;;;;0.08;0.08;;;;;;;24.64;100.00;101820.50;10440051;28;20045;-80
2023/08/17 21:21:11;;;;;;;0.10;0.10;;;;;;;24.89;100.00;101820.06;10423652;28;20487;-81
2023/08/17 21:26:13;;;;;;;0.47;0.32;;;;;;;24.18;100.00;101816.03;10423521;28;20068;-80
2023/08/17 21:31:15;;;;;;;0.00;0.00;;;;;;;24.45;100.00;101825.22;10440212;28;20095;-80
2023/08/17 21:36:17;;;;;;;0.25;0.25;;;;;;;25.14;100.00;101832.75;10439978;28;20041;-81
2023/08/17 21:41:18;;;;;;;0.85;0.32;;;;;;;24.90;100.00;101827.09;10423386;28;20530;-81
2023/08/17 21:46:20;;;;;;;0.20;0.20;;;;;;;25.70;100.00;101826.31;10440023;28;20045;-81
2023/08/17 21:51:22;;;;;;;0.00;0.00;;;;;;;24.62;100.00;101818.78;10439006;28;20056;-80
2023/08/17 21:56:24;;;;;;;0.50;0.30;;;;;;;24.43;100.00;101818.25;10455820;28;20048;-80
2023/08/17 22:01:26;;;;;;;0.15;0.10;;;;;;;24.80;100.00;101809.69;10439582;28;20047;-81
2023/08/17 22:06:27;;;;;;;0.10;0.10;;;;;;;24.53;100.00;101807.53;10438929;28;20087;-80
2023/08/17 22:11:29;;;;;;;0.60;0.50;;;;;;;25.01;100.00;101808.41;10456433;28;20040;-81
2023/08/17 22:16:31;;;;;;;0.68;0.20;;;;;;;24.92;100.00;101804.19;10455210;28;20045;-80
2023/08/17 22:21:32;;;;;;;1.25;0.10;;;;;;;24.94;100.00;101802.38;10438446;28;20144;-80
2023/08/17 22:26:34;;;;;;;0.00;0.00;;;;;;;24.72;100.00;101801.97;10456233;28;20061;-81
2023/08/17 22:31:36;;;;;;;1.05;0.40;;;;;;;24.77;100.00;101800.09;10438630;28;20049;-80
2023/08/17 22:36:37;;;;;;;1.77;0.30;;;;;;;24.37;100.00;101795.53;10455910;28;20041;-80
2023/08/17 22:41:39;;;;;;;0.55;0.32;;;;;;;24.17;100.00;101796.75;10438074;28;20045;-81
2023/08/17 22:46:41;;;;;;;1.27;0.80;;;;;;;24.32;100.00;101795.59;10437940;28;20060;-81
2023/08/17 22:51:42;;;;;;;0.32;0.25;;;;;;;24.63;100.00;101797.69;10437954;28;20048;-80
2023/08/17 22:56:44;;;;;;;0.13;0.13;;;;;;;24.39;100.00;101791.09;10438110;28;20055;-81